Busseron, Indiana
Current Conditions -  °F | °C
As of 5:53 PM on Friday 24 Oct 2014 (Local Time) from KLWV Reporting Station
Clear Clear  
Wind Chill: 65°   Ceiling: Unl
Heat Index: 65°   Visibility: 10mi
Dew Point: 52°   Wind: 5mph
Humidity: 63%   Direction: 220°SW
Pressure: 30.03"   Gusts: NA
Location:  38.8517°N, 87.414°W
Report Text: KLWV 242253Z AUTO 22004KT 10SM CLR 18/11 A3003 RMK AO2 SLP167 T01830111
Loading
Personal Weather Stations






























Interactive Weather Map
Tropical Storm Tracking
New forecast layout! Learn more

10-Day Weather Forecast

Advertisements
Track Severe Weather on mobile